El Paso — WDC2687 — position and weather

sailwx.info

Track history (hours):
 
Tides and Currents Weather Stations Pressure Air Temp Water Temp Dewpoint Dewpoint Depression Visibility Wind Speed Wind Dir Waves Ship Positions

El Paso

Owner: Kirby Inland Marine LP, Houston, TX. More information available from US FCC via Universal Licensing System and Coast Guard Vessel Documentation Center.

Last reported at 2017-Nov-10 20:25 UTC. Time now 2017-Nov-18 04:52 UTC.
Position N 29°47' W 092°10'.

Length 206 m; draft 3 m.

Type: . MMSI: 366996420.

Date/timePositionNaut miles runAvg speedWind from/ knotsBaromVisibWave heightAir tempDewpointWater temp
2017-Nov-10 20:25N 29°47' W 092°10'3 6.0
2017-Nov-10 19:59N 29°47' W 092°13'1 2.3
2017-Nov-10 19:29N 29°48' W 092°14'0 0.0
2017-Nov-10 18:59N 29°48' W 092°14'0 0.0
2017-Nov-10 18:29N 29°48' W 092°14'1 1.0
2017-Nov-10 17:59N 29°48' W 092°15'0 0.0
2017-Nov-10 17:29N 29°48' W 092°15'0 0.1
2017-Nov-10 16:59N 29°48' W 092°15'3 6.1
2017-Nov-10 16:30N 29°50' W 092°18'3 6.1
2017-Nov-10 16:00N 29°51' W 092°21'38 5.9
2017-Nov-10 09:34N 29°56' W 093°05'0 6.3
2017-Nov-10 09:30N 29°56' W 093°05'3 6.2
2017-Nov-10 09:00N 29°56' W 093°09'3 6.0
2017-Nov-10 08:30N 29°58' W 093°11'3 6.4
2017-Nov-10 08:00N 30°00' W 093°14'2 5.0
2017-Nov-10 07:30N 30°02' W 093°16'3 6.1
2017-Nov-10 07:00N 30°05' W 093°17'1 2.0
2017-Nov-10 06:30N 30°06' W 093°18'0 1.0
2017-Nov-10 06:00N 30°06' W 093°18'2 3.9
2017-Nov-10 05:30N 30°05' W 093°20'1 2.3
2017-Nov-10 05:00N 30°04' W 093°21'2 4.5
2017-Nov-10 04:30N 30°04' W 093°23'3 6.4
2017-Nov-10 04:00N 30°04' W 093°27'3 5.7
2017-Nov-10 03:30N 30°04' W 093°30'3 6.6
2017-Nov-10 03:00N 30°04' W 093°34'3 5.1
2017-Nov-10 02:20N 30°03' W 093°38'  
2017-Nov-02 15:58N 30°04' W 093°38'3 5.4
2017-Nov-02 15:26N 30°04' W 093°35'2 5.1
2017-Nov-02 15:01N 30°04' W 093°32'2 4.7
2017-Nov-02 14:30N 30°04' W 093°30'3 5.2
2017-Nov-02 14:01N 30°04' W 093°27'3 5.1
2017-Nov-02 13:31N 30°04' W 093°24'2 4.4
2017-Nov-02 13:01N 30°04' W 093°21'2 4.6
2017-Nov-02 12:30N 30°06' W 093°20'2 3.1
2017-Nov-02 12:01N 30°05' W 093°18'1 1.1
2017-Nov-02 11:31N 30°05' W 093°17'2 4.4
2017-Nov-02 11:01N 30°03' W 093°16'2 4.0
2017-Nov-02 10:30N 30°02' W 093°14'2 4.2
2017-Nov-02 10:00N 29°60' W 093°13'2 4.7
2017-Nov-02 09:31N 29°58' W 093°11'2 4.7
2017-Nov-02 09:01N 29°56' W 093°10'2 4.2
2017-Nov-02 08:31N 29°56' W 093°07'2 4.5
2017-Nov-02 07:58N 29°56' W 093°04'35 4.6
2017-Nov-02 00:26N 29°53' W 092°25'3 4.0
2017-Nov-01 23:37N 29°51' W 092°22'0 4.2
2017-Nov-01 23:31N 29°51' W 092°21'2 4.6
2017-Nov-01 23:01N 29°50' W 092°19'2 3.6
2017-Nov-01 22:31N 29°49' W 092°17'2 4.8
2017-Nov-01 22:01N 29°48' W 092°15'2 4.2
2017-Nov-01 21:31N 29°47' W 092°13'1 1.2
2017-Nov-01 21:01N 29°47' W 092°12'1 1.7
2017-Nov-01 20:30N 29°47' W 092°11'0 0.1
2017-Nov-01 20:01N 29°47' W 092°11'0 0.0
2017-Nov-01 19:31N 29°47' W 092°11'1 1.3
2017-Nov-01 19:00N 29°47' W 092°10'0 0.8
2017-Nov-01 18:30N 29°47' W 092°10'  
Track history (hours):
 
Tides and Currents Weather Stations Pressure Air Temp Water Temp Dewpoint Dewpoint Depression Visibility Wind Speed Wind Dir Waves Ship Positions

El Paso

Owner: Kirby Inland Marine LP, Houston, TX. More information available from US FCC via Universal Licensing System and Coast Guard Vessel Documentation Center.

Last reported at 2017-Nov-10 20:25 UTC. Time now 2017-Nov-18 04:52 UTC.
Position N 29°47' W 092°10'.

Length 206 m; draft 3 m.

Type: . MMSI: 366996420.

Date/timePositionNaut miles runAvg speedWind from/ knotsBaromVisibWave heightAir tempDewpointWater temp
2017-Nov-10 20:25N 29°47' W 092°10'3 6.0
2017-Nov-10 19:59N 29°47' W 092°13'1 2.3
2017-Nov-10 19:29N 29°48' W 092°14'0 0.0
2017-Nov-10 18:59N 29°48' W 092°14'0 0.0
2017-Nov-10 18:29N 29°48' W 092°14'1 1.0
2017-Nov-10 17:59N 29°48' W 092°15'0 0.0
2017-Nov-10 17:29N 29°48' W 092°15'0 0.1
2017-Nov-10 16:59N 29°48' W 092°15'3 6.1
2017-Nov-10 16:30N 29°50' W 092°18'3 6.1
2017-Nov-10 16:00N 29°51' W 092°21'38 5.9
2017-Nov-10 09:34N 29°56' W 093°05'0 6.3
2017-Nov-10 09:30N 29°56' W 093°05'3 6.2
2017-Nov-10 09:00N 29°56' W 093°09'3 6.0
2017-Nov-10 08:30N 29°58' W 093°11'3 6.4
2017-Nov-10 08:00N 30°00' W 093°14'2 5.0
2017-Nov-10 07:30N 30°02' W 093°16'3 6.1
2017-Nov-10 07:00N 30°05' W 093°17'1 2.0
2017-Nov-10 06:30N 30°06' W 093°18'0 1.0
2017-Nov-10 06:00N 30°06' W 093°18'2 3.9
2017-Nov-10 05:30N 30°05' W 093°20'1 2.3
2017-Nov-10 05:00N 30°04' W 093°21'2 4.5
2017-Nov-10 04:30N 30°04' W 093°23'3 6.4
2017-Nov-10 04:00N 30°04' W 093°27'3 5.7
2017-Nov-10 03:30N 30°04' W 093°30'3 6.6
2017-Nov-10 03:00N 30°04' W 093°34'3 5.1
2017-Nov-10 02:20N 30°03' W 093°38'  
2017-Nov-02 15:58N 30°04' W 093°38'3 5.4
2017-Nov-02 15:26N 30°04' W 093°35'2 5.1
2017-Nov-02 15:01N 30°04' W 093°32'2 4.7
2017-Nov-02 14:30N 30°04' W 093°30'3 5.2
2017-Nov-02 14:01N 30°04' W 093°27'3 5.1
2017-Nov-02 13:31N 30°04' W 093°24'2 4.4
2017-Nov-02 13:01N 30°04' W 093°21'2 4.6
2017-Nov-02 12:30N 30°06' W 093°20'2 3.1
2017-Nov-02 12:01N 30°05' W 093°18'1 1.1
2017-Nov-02 11:31N 30°05' W 093°17'2 4.4
2017-Nov-02 11:01N 30°03' W 093°16'2 4.0
2017-Nov-02 10:30N 30°02' W 093°14'2 4.2
2017-Nov-02 10:00N 29°60' W 093°13'2 4.7
2017-Nov-02 09:31N 29°58' W 093°11'2 4.7
2017-Nov-02 09:01N 29°56' W 093°10'2 4.2
2017-Nov-02 08:31N 29°56' W 093°07'2 4.5
2017-Nov-02 07:58N 29°56' W 093°04'35 4.6
2017-Nov-02 00:26N 29°53' W 092°25'3 4.0
2017-Nov-01 23:37N 29°51' W 092°22'0 4.2
2017-Nov-01 23:31N 29°51' W 092°21'2 4.6
2017-Nov-01 23:01N 29°50' W 092°19'2 3.6
2017-Nov-01 22:31N 29°49' W 092°17'2 4.8
2017-Nov-01 22:01N 29°48' W 092°15'2 4.2
2017-Nov-01 21:31N 29°47' W 092°13'1 1.2
2017-Nov-01 21:01N 29°47' W 092°12'1 1.7
2017-Nov-01 20:30N 29°47' W 092°11'0 0.1
2017-Nov-01 20:01N 29°47' W 092°11'0 0.0
2017-Nov-01 19:31N 29°47' W 092°11'1 1.3
2017-Nov-01 19:00N 29°47' W 092°10'0 0.8
2017-Nov-01 18:30N 29°47' W 092°10'  

Dump ship's entire track history